Date,TemperatureHighF,TemperatureAvgF,TemperatureLowF,DewpointHighF,DewpointAvgF,DewpointLowF,HumidityHigh,HumidityAvg,HumidityLow,PressureMaxIn,PressureMinIn,WindSpeedMaxMPH,WindSpeedAvgMPH,GustSpeedMaxMPH,PrecipitationSumIn
2013-1-1,41,37,28,31,25,9,71,61,46,29.95,29.77,11,2,14,0.00
2013-1-2,32,28,23,18,15,8,65,57,44,30.11,29.94,14,1,14,0.00
2013-1-3,29,25,20,20,15,5,78,64,51,30.16,30.02,9,1,12,0.00
2013-1-4,38,33,25,27,24,18,80,70,58,30.03,29.89,6,1,13,0.00
2013-1-5,44,35,27,28,24,21,81,66,49,30.25,29.92,12,1,14,0.00
2013-1-6,42,34,27,40,32,22,97,90,81,30.20,29.97,8,1,10,0.01
2013-1-7,43,35,23,34,27,17,91,72,55,30.39,29.98,8,0,9,0.00
2013-1-8,46,41,23,40,37,17,93,85,76,30.42,30.32,9,1,11,0.00
2013-1-9,47,41,27,45,38,24,100,89,74,30.38,30.05,9,1,15,0.00
2013-1-10,48,43,35,38,28,25,77,57,44,30.52,30.13,14,1,14,0.00
2013-1-11,46,40,28,46,37,23,100,88,77,30.51,30.12,1,0,2,0.24
2013-1-12,47,45,44,47,45,44,100,100,99,30.14,30.05,5,0,5,0.09
2013-1-13,50,46,43,50,46,43,100,100,100,30.15,30.00,3,0,4,0.01
2013-1-14,56,49,40,56,46,33,100,89,60,30.24,29.95,7,1,11,0.02
2013-1-15,40,38,36,37,34,32,98,86,76,30.30,30.17,4,0,5,0.23
2013-1-16,43,39,36,43,38,32,100,98,80,30.20,29.73,6,0,9,0.62
2013-1-17,43,38,33,38,34,26,100,87,66,30.06,29.87,9,0,9,0.00
2013-1-18,34,26,21,26,11,4,87,53,37,30.49,29.99,9,1,15,0.00
2013-1-19,46,43,22,42,36,13,88,76,67,30.42,29.98,14,5,18,0.03
2013-1-20,50,46,36,43,34,16,89,68,34,29.93,29.65,14,3,15,0.00
2013-1-21,33,30,25,29,21,10,97,71,44,30.09,29.77,2,0,7,0.00
2013-1-22,27,22,19,27,11,2,97,63,44,30.06,29.76,15,2,15,0.00
2013-1-23,19,16,12,3,0,-2,62,50,41,30.19,30.10,8,1,15,0.00
2013-1-24,21,15,7,5,1,-1,75,54,37,30.30,30.11,16,2,17,0.00
2013-1-25,23,21,15,18,9,2,85,60,51,30.35,30.01,10,1,13,0.00
2013-1-26,26,22,16,20,12,5,90,65,46,30.29,29.99,11,1,14,0.01
2013-1-27,32,25,18,12,9,6,72,51,33,30.47,30.29,12,1,12,0.01
2013-1-28,38,31,13,37,27,6,99,87,62,30.46,29.99,5,0,7,0.31
2013-1-29,40,37,31,38,36,31,100,95,87,30.17,29.98,2,0,4,0.02
2013-1-30,52,48,40,52,48,39,100,100,98,30.12,29.48,8,2,9,0.00
2013-1-31,54,44,31,54,33,16,100,67,38,29.69,29.10,22,4,23,0.29